createdAt,value
2023-04-16T00:03:29.416Z,98658.78
2023-04-16T00:08:35.744Z,98656.16
2023-04-16T00:13:39.190Z,98656.31
2023-04-16T00:18:43.408Z,98650.22
2023-04-16T00:23:48.212Z,98662.56
2023-04-16T00:28:51.633Z,98654.91
2023-04-16T00:33:55.261Z,98659.91
2023-04-16T00:39:00.132Z,98660.94
2023-04-16T00:44:04.096Z,98669.09
2023-04-16T00:49:07.944Z,98658.41
2023-04-16T00:54:14.153Z,98675.13
2023-04-16T00:59:18.084Z,98675.97
2023-04-16T01:04:22.036Z,98665.38
2023-04-16T01:09:27.098Z,98666.56
2023-04-16T01:14:32.011Z,98655.16
2023-04-16T01:19:36.411Z,98655.16
2023-04-16T01:24:41.946Z,98653.31
2023-04-16T01:29:47.309Z,98651.66
2023-04-16T01:34:57.461Z,98657.06
2023-04-16T01:40:02.795Z,98647.47
2023-04-16T01:45:08.828Z,98645.69
2023-04-16T01:50:12.933Z,98641.25
2023-04-16T01:55:17.887Z,98638.53
2023-04-16T02:00:21.816Z,98630.69
2023-04-16T02:05:25.215Z,98623.09
2023-04-16T02:10:30.784Z,98627.44
2023-04-16T02:15:35.384Z,98621.44
2023-04-16T02:20:41.891Z,98615.44
2023-04-16T02:25:47.984Z,98617.38
2023-04-16T02:30:52.881Z,98604.31
2023-04-16T02:35:57.902Z,98600.75
2023-04-16T02:41:02.903Z,98609.41
2023-04-16T02:46:06.465Z,98610.09
2023-04-16T02:51:10.388Z,98608.44
2023-04-16T02:56:15.227Z,98626.00
2023-04-16T03:01:19.190Z,98622.69
2023-04-16T03:06:22.681Z,98620.09
2023-04-16T03:11:27.505Z,98620.00
2023-04-16T03:16:31.582Z,98620.88
2023-04-16T03:21:35.339Z,98623.56
2023-04-16T03:26:40.484Z,98627.00
2023-04-16T03:31:44.162Z,98619.31
2023-04-16T03:36:47.605Z,98627.16
2023-04-16T03:41:52.617Z,98629.66
2023-04-16T03:46:56.268Z,98628.69
2023-04-16T03:52:00.280Z,98622.38
2023-04-16T03:57:05.477Z,98619.81
2023-04-16T04:02:09.958Z,98634.66
2023-04-16T04:07:13.767Z,98631.16
2023-04-16T04:12:19.067Z,98631.88
2023-04-16T04:17:23.687Z,98626.63
2023-04-16T04:22:27.931Z,98632.50
2023-04-16T04:27:33.204Z,98640.34
2023-04-16T04:32:36.968Z,98646.31
2023-04-16T04:37:40.890Z,98647.00
2023-04-16T04:42:52.565Z,98655.53
2023-04-16T04:47:59.362Z,98654.25
2023-04-16T04:53:04.723Z,98642.69
2023-04-16T04:58:10.562Z,98645.88
2023-04-16T05:03:22.008Z,98657.78
2023-04-16T05:08:25.833Z,98653.25
2023-04-16T05:13:30.966Z,98649.38
2023-04-16T05:18:34.627Z,98648.06
2023-04-16T05:23:38.432Z,98653.34
2023-04-16T05:28:43.291Z,98655.13
2023-04-16T05:33:46.758Z,98660.00
2023-04-16T05:38:50.171Z,98659.88
2023-04-16T05:43:55.390Z,98654.19
2023-04-16T05:48:58.802Z,98646.72
2023-04-16T05:54:02.244Z,98643.84
2023-04-16T05:59:07.407Z,98640.00
2023-04-16T06:04:11.361Z,98643.00
2023-04-16T06:09:14.893Z,98647.09
2023-04-16T06:14:19.823Z,98633.84
2023-04-16T06:19:23.267Z,98634.50
2023-04-16T06:24:26.710Z,98641.25
2023-04-16T06:29:40.581Z,98651.41
2023-04-16T06:34:44.653Z,98649.41
2023-04-16T06:39:48.190Z,98656.41
2023-04-16T06:44:53.171Z,98656.09
2023-04-16T06:49:56.858Z,98653.16
2023-04-16T06:55:00.700Z,98652.19
2023-04-16T07:00:06.346Z,98642.59
2023-04-16T07:05:10.207Z,98646.41
2023-04-16T07:10:14.113Z,98638.34
2023-04-16T07:15:19.343Z,98624.66
2023-04-16T07:20:23.189Z,98635.09
2023-04-16T07:25:26.979Z,98638.53
2023-04-16T07:30:34.340Z,98628.81
2023-04-16T07:35:37.786Z,98632.13
2023-04-16T07:40:41.233Z,98643.06
2023-04-16T07:45:46.391Z,98642.16
2023-04-16T07:50:50.329Z,98644.28
2023-04-16T07:55:53.837Z,98640.88
2023-04-16T08:00:59.698Z,98640.78
2023-04-16T08:06:03.636Z,98633.63
2023-04-16T08:11:07.096Z,98642.16
2023-04-16T08:16:12.302Z,98627.91
2023-04-16T08:21:15.871Z,98616.53
2023-04-16T08:26:19.608Z,98610.66
2023-04-16T08:31:24.596Z,98603.31
2023-04-16T08:36:28.324Z,98600.66
2023-04-16T08:41:33.558Z,98588.50
2023-04-16T08:46:39.514Z,98583.84
2023-04-16T08:51:47.092Z,98574.59
2023-04-16T08:56:52.435Z,98589.53
2023-04-16T09:02:00.123Z,98590.41
2023-04-16T09:07:06.222Z,98581.06
2023-04-16T09:12:10.681Z,98587.06
2023-04-16T09:17:16.967Z,98580.56
2023-04-16T09:22:20.891Z,98561.88
2023-04-16T09:27:26.075Z,98559.13
2023-04-16T09:32:31.236Z,98557.25
2023-04-16T09:37:34.978Z,98557.00
2023-04-16T09:42:38.605Z,98550.03
2023-04-16T09:47:45.318Z,98543.84
2023-04-16T09:52:51.312Z,98538.38
2023-04-16T09:58:01.237Z,98529.97
2023-04-16T10:03:07.322Z,98528.34
2023-04-16T10:08:14.946Z,98503.91
2023-04-16T10:13:19.284Z,98492.31
2023-04-16T10:18:24.504Z,98491.53
2023-04-16T10:23:28.361Z,98489.50
2023-04-16T10:28:32.267Z,98485.25
2023-04-16T10:33:40.625Z,98490.28
2023-04-16T10:38:48.452Z,98487.19
2023-04-16T10:43:52.502Z,98493.94
2023-04-16T10:49:01.837Z,98492.78
2023-04-16T10:54:20.635Z,98496.59
2023-04-16T10:59:25.167Z,98489.06
2023-04-16T11:04:35.525Z,98485.41
2023-04-16T11:10:05.531Z,98493.31
2023-04-16T11:15:12.112Z,98486.59
2023-04-16T11:20:20.914Z,98482.78
2023-04-16T11:25:27.407Z,98481.63
2023-04-16T11:30:33.362Z,98475.66
2023-04-16T11:35:39.372Z,98455.38
2023-04-16T11:40:43.982Z,98464.59
2023-04-16T11:45:58.184Z,98462.78
2023-04-16T11:51:03.398Z,98465.41
2023-04-16T11:56:07.248Z,98475.00
2023-04-16T12:01:11.642Z,98472.78
2023-04-16T12:06:16.547Z,98473.22
2023-04-16T12:11:20.051Z,98469.06
2023-04-16T12:16:23.785Z,98465.03
2023-04-16T12:21:38.055Z,98455.59
2023-04-16T12:26:43.598Z,98450.44
2023-04-16T12:31:47.580Z,98461.00
2023-04-16T12:37:09.568Z,98466.25
2023-04-16T12:42:12.983Z,98450.88
2023-04-16T12:47:16.684Z,98455.50
2023-04-16T12:52:23.807Z,98466.88
2023-04-16T12:57:28.840Z,98462.78
2023-04-16T13:02:32.584Z,98460.41
2023-04-16T13:07:37.608Z,98457.75
2023-04-16T13:12:41.111Z,98471.28
2023-04-16T13:17:44.572Z,98465.56
2023-04-16T13:22:49.362Z,98459.06
2023-04-16T13:27:53.165Z,98456.97
2023-04-16T13:32:57.059Z,98455.88
2023-04-16T13:38:01.869Z,98448.50
2023-04-16T13:43:07.622Z,98460.03
2023-04-16T13:48:11.348Z,98450.94
2023-04-16T13:53:16.413Z,98448.47
2023-04-16T13:58:20.255Z,98442.59
2023-04-16T14:03:23.826Z,98437.34
2023-04-16T14:08:28.901Z,98424.50
2023-04-16T14:13:32.510Z,98435.56
2023-04-16T14:18:35.986Z,98433.56
2023-04-16T14:23:41.207Z,98445.03
2023-04-16T14:28:44.577Z,98445.44
2023-04-16T14:33:48.017Z,98457.50
2023-04-16T14:38:52.921Z,98451.41
2023-04-16T14:43:56.359Z,98463.16
2023-04-16T14:48:59.867Z,98464.31
2023-04-16T14:54:04.837Z,98480.31
2023-04-16T14:59:08.444Z,98483.16
2023-04-16T15:04:12.448Z,98482.31
2023-04-16T15:09:17.694Z,98484.72
2023-04-16T15:14:21.185Z,98481.66
2023-04-16T15:19:24.691Z,98495.63
2023-04-16T15:24:29.629Z,98495.13
2023-04-16T15:29:33.133Z,98499.44
2023-04-16T15:34:36.671Z,98506.16
2023-04-16T15:39:41.512Z,98507.00
2023-04-16T15:44:45.011Z,98516.88
2023-04-16T15:49:48.803Z,98515.16
2023-04-16T15:54:53.840Z,98518.00
2023-04-16T16:00:06.456Z,98520.75
2023-04-16T16:05:11.993Z,98527.91
2023-04-16T16:10:17.262Z,98520.19
2023-04-16T16:15:21.699Z,98520.63
2023-04-16T16:20:25.721Z,98530.19
2023-04-16T16:25:30.575Z,98525.59
2023-04-16T16:30:34.060Z,98520.84
2023-04-16T16:35:37.477Z,98518.94
2023-04-16T16:40:42.619Z,98513.50
2023-04-16T16:45:46.595Z,98511.41
2023-04-16T16:50:50.083Z,98495.66
2023-04-16T16:55:55.394Z,98508.69
2023-04-16T17:00:58.861Z,98523.81
2023-04-16T17:06:02.593Z,98525.38
2023-04-16T17:11:07.759Z,98521.53
2023-04-16T17:16:11.459Z,98516.44
2023-04-16T17:21:16.496Z,98527.88
2023-04-16T17:26:22.511Z,98537.53
2023-04-16T17:31:27.414Z,98539.38
2023-04-16T17:36:31.472Z,98550.44
2023-04-16T17:41:36.369Z,98561.47
2023-04-16T17:46:39.788Z,98562.75
2023-04-16T17:51:44.667Z,98583.94
2023-04-16T17:56:49.888Z,98585.19
2023-04-16T18:01:53.465Z,98584.34
2023-04-16T18:06:57.203Z,98586.81
2023-04-16T18:12:03.018Z,98592.34
2023-04-16T18:17:06.831Z,98597.94
2023-04-16T18:22:11.067Z,98592.72
2023-04-16T18:27:15.838Z,98594.63
2023-04-16T18:32:19.736Z,98588.38
2023-04-16T18:37:23.693Z,98589.16
2023-04-16T18:42:29.444Z,98603.19
2023-04-16T18:47:34.734Z,98597.88
2023-04-16T18:52:38.457Z,98604.94
2023-04-16T18:57:44.003Z,98600.72
2023-04-16T19:02:47.822Z,98603.28
2023-04-16T19:07:51.772Z,98601.63
2023-04-16T19:12:58.034Z,98592.75
2023-04-16T19:18:02.141Z,98594.72
2023-04-16T19:23:08.954Z,98596.66
2023-04-16T19:28:14.916Z,98595.25
2023-04-16T19:33:18.446Z,98608.34
2023-04-16T19:38:22.109Z,98594.69
2023-04-16T19:43:28.415Z,98582.56
2023-04-16T19:48:33.825Z,98572.19
2023-04-16T19:53:37.538Z,98576.38
2023-04-16T19:58:42.335Z,98573.94
2023-04-16T20:03:46.299Z,98573.88
2023-04-16T20:08:49.867Z,98568.91
2023-04-16T20:13:54.719Z,98578.47
2023-04-16T20:19:03.623Z,98578.75
2023-04-16T20:24:10.679Z,98567.56
2023-04-16T20:29:15.826Z,98571.66
2023-04-16T20:34:19.632Z,98581.09
2023-04-16T20:39:23.296Z,98577.63
2023-04-16T20:44:33.427Z,98583.78
2023-04-16T20:49:38.399Z,98588.34
2023-04-16T20:54:42.240Z,98586.00
2023-04-16T20:59:47.206Z,98586.81
2023-04-16T21:04:50.915Z,98579.91
2023-04-16T21:09:54.512Z,98582.31
2023-04-16T21:14:59.878Z,98569.25
2023-04-16T21:20:03.741Z,98558.69
2023-04-16T21:25:08.268Z,98559.91
2023-04-16T21:30:14.883Z,98555.88
2023-04-16T21:35:18.856Z,98546.31
2023-04-16T21:40:23.944Z,98547.44
2023-04-16T21:45:30.463Z,98542.97
2023-04-16T21:50:34.065Z,98541.34
2023-04-16T21:55:37.906Z,98536.94
2023-04-16T22:00:42.790Z,98547.22
2023-04-16T22:05:46.376Z,98549.81
2023-04-16T22:10:50.281Z,98558.56
2023-04-16T22:15:57.823Z,98567.00
2023-04-16T22:21:01.662Z,98568.66
2023-04-16T22:26:05.124Z,98577.38
2023-04-16T22:31:10.324Z,98579.06
2023-04-16T22:36:14.065Z,98569.59
2023-04-16T22:41:17.851Z,98567.69
2023-04-16T22:46:24.804Z,98565.22
2023-04-16T22:51:29.057Z,98547.78
2023-04-16T22:56:32.625Z,98553.22
2023-04-16T23:01:37.587Z,98563.59
2023-04-16T23:06:42.159Z,98566.44
2023-04-16T23:11:45.873Z,98547.19
2023-04-16T23:16:50.690Z,98550.56
2023-04-16T23:21:54.392Z,98549.06
2023-04-16T23:26:58.040Z,98553.34
2023-04-16T23:32:03.185Z,98552.53
2023-04-16T23:37:06.732Z,98548.94
2023-04-16T23:42:10.231Z,98541.19
2023-04-16T23:47:15.113Z,98531.63
2023-04-16T23:52:18.579Z,98534.09
2023-04-16T23:57:22.064Z,98536.69
